createdAt,value
2019-02-09T00:00:01.470Z,97602.16
2019-02-09T00:02:33.537Z,97599.11
2019-02-09T00:05:06.069Z,97597.12
2019-02-09T00:07:38.065Z,97590.88
2019-02-09T00:10:10.281Z,97588.62
2019-02-09T00:12:42.305Z,97585.00
2019-02-09T00:15:14.627Z,97587.41
2019-02-09T00:17:46.630Z,97592.78
2019-02-09T00:20:18.739Z,97577.95
2019-02-09T00:22:50.796Z,97579.17
2019-02-09T00:25:22.870Z,97571.58
2019-02-09T00:27:54.899Z,97565.63
2019-02-09T00:30:26.937Z,97566.81
2019-02-09T00:32:58.970Z,97563.80
2019-02-09T00:35:30.954Z,97558.95
2019-02-09T00:38:03.047Z,97554.30
2019-02-09T00:40:35.059Z,97552.93
2019-02-09T00:43:07.022Z,97557.44
2019-02-09T00:45:39.170Z,97555.59
2019-02-09T00:48:11.197Z,97554.11
2019-02-09T00:50:43.180Z,97551.22
2019-02-09T00:53:15.204Z,97551.33
2019-02-09T00:55:47.211Z,97557.58
2019-02-09T00:58:19.195Z,97554.29
2019-02-09T01:00:51.204Z,97551.73
2019-02-09T01:03:23.178Z,97552.49
2019-02-09T01:05:55.180Z,97554.94
2019-02-09T01:08:27.170Z,97552.53
2019-02-09T01:10:59.180Z,97548.84
2019-02-09T01:13:31.146Z,97541.22
2019-02-09T01:16:03.268Z,97534.89
2019-02-09T01:18:35.248Z,97528.71
2019-02-09T01:21:07.234Z,97526.20
2019-02-09T01:23:39.203Z,97520.25
2019-02-09T01:26:11.225Z,97514.88
2019-02-09T01:28:43.293Z,97507.79
2019-02-09T01:31:15.247Z,97508.20
2019-02-09T01:33:47.229Z,97502.15
2019-02-09T01:36:19.218Z,97498.42
2019-02-09T01:38:51.275Z,97493.62
2019-02-09T01:41:23.284Z,97494.38
2019-02-09T01:43:55.268Z,97490.56
2019-02-09T01:46:27.263Z,97491.41
2019-02-09T01:48:59.245Z,97494.95
2019-02-09T01:51:31.258Z,97494.84
2019-02-09T01:54:03.584Z,97509.22
2019-02-09T01:56:35.633Z,97509.77
2019-02-09T01:59:07.627Z,97489.20
2019-02-09T02:01:39.583Z,97469.79
2019-02-09T02:04:11.565Z,97474.55
2019-02-09T02:06:43.604Z,97461.84
2019-02-09T02:09:15.684Z,97459.92
2019-02-09T02:11:47.681Z,97455.02
2019-02-09T02:14:19.716Z,97457.79
2019-02-09T02:16:51.683Z,97453.42
2019-02-09T02:19:23.793Z,97444.42
2019-02-09T02:21:55.781Z,97435.70
2019-02-09T02:24:27.784Z,97434.67
2019-02-09T02:26:59.797Z,97422.59
2019-02-09T02:29:31.994Z,97425.06
2019-02-09T02:32:04.125Z,97415.95
2019-02-09T02:34:36.113Z,97405.05
2019-02-09T02:37:08.157Z,97408.00
2019-02-09T02:39:40.192Z,97389.57
2019-02-09T02:42:12.185Z,97396.88
2019-02-09T02:44:44.201Z,97404.28
2019-02-09T02:47:16.173Z,97393.43
2019-02-09T02:49:48.148Z,97390.02
2019-02-09T02:52:20.236Z,97384.64
2019-02-09T02:54:52.256Z,97381.87
2019-02-09T02:57:24.250Z,97375.08
2019-02-09T02:59:56.244Z,97379.59
2019-02-09T03:02:28.225Z,97366.78
2019-02-09T03:05:00.282Z,97372.08
2019-02-09T03:07:32.272Z,97374.38
2019-02-09T03:10:05.327Z,97375.39
2019-02-09T03:12:37.324Z,97367.23
2019-02-09T03:15:12.212Z,97369.63
2019-02-09T03:17:44.203Z,97374.02
2019-02-09T03:20:57.426Z,97387.35
2019-02-09T03:23:29.395Z,97387.75
2019-02-09T03:26:01.406Z,97386.59
2019-02-09T03:28:33.375Z,97389.00
2019-02-09T03:31:05.385Z,97395.58
2019-02-09T03:33:37.376Z,97394.83
2019-02-09T03:36:09.364Z,97392.04
2019-02-09T03:38:41.323Z,97397.60
2019-02-09T03:41:13.309Z,97403.63
2019-02-09T03:43:45.269Z,97419.13
2019-02-09T03:46:17.254Z,97412.58
2019-02-09T03:48:49.219Z,97416.37
2019-02-09T03:51:21.195Z,97425.55
2019-02-09T03:53:53.191Z,97426.95
2019-02-09T03:56:25.179Z,97432.88
2019-02-09T03:58:57.145Z,97429.98
2019-02-09T04:01:29.124Z,97437.66
2019-02-09T04:04:01.081Z,97447.98
2019-02-09T04:07:13.898Z,97451.15
2019-02-09T04:09:45.864Z,97449.50
2019-02-09T04:12:17.834Z,97447.98
2019-02-09T04:14:49.811Z,97448.25
2019-02-09T04:17:21.853Z,97450.01
2019-02-09T04:19:53.828Z,97450.40
2019-02-09T04:22:25.817Z,97455.31
2019-02-09T04:24:57.797Z,97460.35
2019-02-09T04:27:29.804Z,97469.56
2019-02-09T04:30:01.860Z,97478.48
2019-02-09T04:32:33.851Z,97482.80
2019-02-09T04:35:06.169Z,97482.42
2019-02-09T04:37:38.125Z,97473.84
2019-02-09T04:40:51.688Z,97484.41
2019-02-09T04:43:23.691Z,97463.86
2019-02-09T04:45:55.677Z,97475.97
2019-02-09T04:51:27.438Z,97477.23
2019-02-09T04:53:59.453Z,97479.50
2019-02-09T04:56:31.511Z,97481.88
2019-02-09T04:59:03.513Z,97485.39
2019-02-09T05:01:35.500Z,97480.05
2019-02-09T05:04:07.472Z,97486.73
2019-02-09T05:06:39.440Z,97469.54
2019-02-09T05:09:11.499Z,97462.13
2019-02-09T05:11:43.461Z,97488.17
2019-02-09T05:14:15.509Z,97492.42
2019-02-09T05:16:47.496Z,97502.77
2019-02-09T05:19:19.489Z,97508.28
2019-02-09T05:21:51.441Z,97511.41
2019-02-09T05:24:23.446Z,97514.52
2019-02-09T05:26:55.415Z,97516.45
2019-02-09T05:29:27.452Z,97508.84
2019-02-09T05:31:59.428Z,97501.84
2019-02-09T05:34:31.505Z,97492.67
2019-02-09T05:37:44.293Z,97490.59
2019-02-09T05:40:17.887Z,97490.19
2019-02-09T05:42:49.855Z,97479.59
2019-02-09T05:46:03.364Z,97482.45
2019-02-09T05:48:35.355Z,97469.44
2019-02-09T05:51:07.335Z,97472.81
2019-02-09T05:53:39.310Z,97466.17
2019-02-09T05:58:49.996Z,97480.61
2019-02-09T06:01:22.009Z,97483.17
2019-02-09T06:03:53.980Z,97490.11
2019-02-09T06:06:25.997Z,97490.92
2019-02-09T06:08:57.986Z,97505.17
2019-02-09T06:11:30.071Z,97500.70
2019-02-09T06:14:02.111Z,97519.63
2019-02-09T06:16:34.105Z,97526.78
2019-02-09T06:19:06.078Z,97544.92
2019-02-09T06:21:38.050Z,97549.94
2019-02-09T06:24:10.274Z,97549.48
2019-02-09T06:26:42.303Z,97560.84
2019-02-09T06:29:14.268Z,97559.39
2019-02-09T06:31:46.323Z,97566.84
2019-02-09T06:34:18.290Z,97570.64
2019-02-09T06:36:50.296Z,97576.06
2019-02-09T06:39:22.279Z,97568.54
2019-02-09T06:41:54.287Z,97575.60
2019-02-09T06:44:26.279Z,97587.13
2019-02-09T06:46:58.256Z,97598.38
2019-02-09T06:49:30.260Z,97589.58
2019-02-09T06:52:02.321Z,97590.46
2019-02-09T06:54:34.322Z,97596.28
2019-02-09T06:57:06.326Z,97595.06
2019-02-09T07:00:19.112Z,97610.14
2019-02-09T07:02:51.097Z,97612.84
2019-02-09T07:05:23.064Z,97612.05
2019-02-09T07:07:55.059Z,97617.08
2019-02-09T07:10:27.100Z,97624.11
2019-02-09T07:12:59.131Z,97636.27
2019-02-09T07:15:31.454Z,97635.67
2019-02-09T07:21:02.901Z,97625.88
2019-02-09T07:23:34.895Z,97636.56
2019-02-09T07:26:06.902Z,97635.38
2019-02-09T07:28:39.049Z,97654.56
2019-02-09T07:31:11.054Z,97655.30
2019-02-09T07:33:43.091Z,97653.48
2019-02-09T07:36:15.069Z,97659.86
2019-02-09T07:38:47.073Z,97661.69
2019-02-09T07:41:19.056Z,97658.73
2019-02-09T07:43:51.124Z,97656.45
2019-02-09T07:46:23.107Z,97658.05
2019-02-09T07:48:55.198Z,97658.62
2019-02-09T07:51:27.230Z,97647.15
2019-02-09T07:53:59.272Z,97659.80
2019-02-09T07:56:31.311Z,97655.61
2019-02-09T07:59:03.424Z,97665.77
2019-02-09T08:01:35.493Z,97664.02
2019-02-09T08:04:07.529Z,97669.70
2019-02-09T08:06:41.254Z,97677.22
2019-02-09T08:09:13.448Z,97677.91
2019-02-09T08:11:45.532Z,97680.14
2019-02-09T08:14:17.548Z,97685.23
2019-02-09T08:16:49.595Z,97690.33
2019-02-09T08:19:29.067Z,97689.65
2019-02-09T08:22:01.192Z,97689.05
2019-02-09T08:24:33.304Z,97693.85
2019-02-09T08:27:05.335Z,97703.67
2019-02-09T08:29:37.324Z,97719.50
2019-02-09T08:32:12.710Z,97719.30
2019-02-09T08:34:43.269Z,97715.58
2019-02-09T08:37:15.321Z,97723.09
2019-02-09T08:39:47.322Z,97719.12
2019-02-09T08:42:22.074Z,97710.29
2019-02-09T08:44:54.313Z,97718.53
2019-02-09T08:47:26.274Z,97723.50
2019-02-09T08:49:58.277Z,97731.50
2019-02-09T08:52:30.318Z,97719.47
2019-02-09T08:55:02.365Z,97720.38
2019-02-09T08:57:34.404Z,97719.88
2019-02-09T09:00:08.739Z,97720.59
2019-02-09T09:02:40.769Z,97722.26
2019-02-09T09:05:13.071Z,97720.20
2019-02-09T09:07:45.296Z,97717.02
2019-02-09T09:10:18.074Z,97720.08
2019-02-09T09:12:50.110Z,97714.01
2019-02-09T09:15:28.861Z,97713.23
2019-02-09T09:18:00.939Z,97718.12
2019-02-09T09:20:34.522Z,97725.62
2019-02-09T09:23:06.578Z,97739.85
2019-02-09T09:25:38.658Z,97744.14
2019-02-09T09:28:10.715Z,97745.56
2019-02-09T09:30:42.824Z,97742.39
2019-02-09T09:33:14.869Z,97739.84
2019-02-09T09:35:49.442Z,97735.73
2019-02-09T09:38:21.491Z,97745.23
2019-02-09T09:40:53.540Z,97752.55
2019-02-09T09:43:25.611Z,97751.64
2019-02-09T09:45:57.672Z,97751.47
2019-02-09T09:48:29.770Z,97755.20
2019-02-09T09:51:01.820Z,97744.89
2019-02-09T09:53:33.883Z,97737.76
2019-02-09T09:56:06.150Z,97742.27
2019-02-09T09:58:38.182Z,97748.61
2019-02-09T10:01:10.182Z,97757.29
2019-02-09T10:03:42.390Z,97751.64
2019-02-09T10:06:14.399Z,97750.25
2019-02-09T10:08:46.423Z,97756.69
2019-02-09T10:11:18.440Z,97767.03
2019-02-09T10:13:50.447Z,97764.88
2019-02-09T10:16:22.464Z,97757.23
2019-02-09T10:18:54.489Z,97769.63
2019-02-09T10:21:26.540Z,97758.81
2019-02-09T10:23:58.618Z,97772.08
2019-02-09T10:26:30.574Z,97784.36
2019-02-09T10:29:02.611Z,97781.94
2019-02-09T10:31:34.657Z,97780.73
2019-02-09T10:34:06.637Z,97779.95
2019-02-09T10:36:38.681Z,97771.55
2019-02-09T10:39:10.662Z,97772.98
2019-02-09T10:41:42.869Z,97789.19
2019-02-09T10:44:14.896Z,97800.73
2019-02-09T10:46:47.019Z,97817.16
2019-02-09T10:49:18.996Z,97837.94
2019-02-09T10:51:51.143Z,97836.48
2019-02-09T10:54:23.219Z,97836.48
2019-02-09T10:56:55.276Z,97848.36
2019-02-09T10:59:27.275Z,97838.94
2019-02-09T11:01:59.343Z,97831.23
2019-02-09T11:04:31.393Z,97836.33
2019-02-09T11:07:03.539Z,97822.09
2019-02-09T11:09:35.780Z,97824.25
2019-02-09T11:12:07.822Z,97820.91
2019-02-09T11:14:39.775Z,97814.11
2019-02-09T11:17:13.859Z,97824.78
2019-02-09T11:19:46.786Z,97826.19
2019-02-09T11:22:18.887Z,97830.15
2019-02-09T11:24:50.980Z,97831.93
2019-02-09T11:27:23.078Z,97841.44
2019-02-09T11:29:55.089Z,97827.33
2019-02-09T11:32:27.193Z,97830.34
2019-02-09T11:34:59.210Z,97834.24
2019-02-09T11:37:31.291Z,97818.17
2019-02-09T11:40:04.522Z,97810.80
2019-02-09T11:42:36.579Z,97798.82
2019-02-09T11:45:12.071Z,97791.27
2019-02-09T11:47:44.128Z,97775.91
2019-02-09T11:50:16.266Z,97775.91
2019-02-09T11:52:48.511Z,97778.98
2019-02-09T11:55:20.594Z,97782.59
2019-02-09T11:57:52.639Z,97776.48
2019-02-09T12:00:32.943Z,97782.38
2019-02-09T12:03:13.967Z,97783.66
2019-02-09T12:05:39.120Z,97778.55
2019-02-09T12:08:11.164Z,97782.86
2019-02-09T12:10:43.183Z,97784.27
2019-02-09T12:13:18.142Z,97789.19
2019-02-09T12:15:50.236Z,97784.08
2019-02-09T12:18:22.286Z,97781.95
2019-02-09T12:20:54.341Z,97786.36
2019-02-09T12:23:26.410Z,97779.67
2019-02-09T12:25:58.492Z,97766.96
2019-02-09T12:28:30.536Z,97775.14
2019-02-09T12:31:02.603Z,97772.52
2019-02-09T12:33:34.630Z,97782.37
2019-02-09T12:36:06.680Z,97775.48
2019-02-09T12:38:38.692Z,97770.89
2019-02-09T12:41:10.750Z,97789.49
2019-02-09T12:43:42.777Z,97792.65
2019-02-09T12:46:14.833Z,97796.70
2019-02-09T12:48:46.903Z,97791.23
2019-02-09T12:51:18.940Z,97785.08
2019-02-09T12:53:51.016Z,97772.04
2019-02-09T12:56:23.036Z,97755.16
2019-02-09T12:58:55.099Z,97750.78
2019-02-09T13:01:27.245Z,97751.72
2019-02-09T13:03:59.211Z,97746.20
2019-02-09T13:06:31.261Z,97740.34
2019-02-09T13:09:06.598Z,97745.56
2019-02-09T13:11:38.634Z,97741.44
2019-02-09T13:14:10.670Z,97740.20
2019-02-09T13:16:44.253Z,97744.45
2019-02-09T13:19:16.259Z,97741.48
2019-02-09T13:21:50.705Z,97741.48
2019-02-09T13:24:22.729Z,97743.18
2019-02-09T13:26:54.714Z,97742.45
2019-02-09T13:29:26.744Z,97746.58
2019-02-09T13:31:58.788Z,97750.81
2019-02-09T13:34:30.786Z,97737.28
2019-02-09T13:37:02.890Z,97749.58
2019-02-09T13:39:34.920Z,97745.78
2019-02-09T13:42:06.976Z,97745.95
2019-02-09T13:44:39.005Z,97737.34
2019-02-09T13:47:11.085Z,97725.08
2019-02-09T13:49:43.156Z,97728.31
2019-02-09T13:52:15.246Z,97735.53
2019-02-09T13:54:47.298Z,97743.51
2019-02-09T13:57:19.338Z,97743.51
2019-02-09T13:59:51.414Z,97744.07
2019-02-09T14:02:23.456Z,97744.07
2019-02-09T14:04:55.457Z,97745.84
2019-02-09T14:07:27.542Z,97759.01
2019-02-09T14:09:59.608Z,97749.37
2019-02-09T14:12:31.679Z,97757.78
2019-02-09T14:15:05.695Z,97763.41
2019-02-09T14:17:37.720Z,97759.30
2019-02-09T14:20:10.672Z,97762.31
2019-02-09T14:22:42.682Z,97761.20
2019-02-09T14:25:14.979Z,97769.65
2019-02-09T14:27:48.480Z,97771.60
2019-02-09T14:30:22.333Z,97769.82
2019-02-09T14:32:54.391Z,97775.10
2019-02-09T14:35:26.445Z,97779.16
2019-02-09T14:37:58.548Z,97786.94
2019-02-09T14:40:31.442Z,97784.97
2019-02-09T14:43:04.159Z,97788.73
2019-02-09T14:45:38.055Z,97781.66
2019-02-09T14:48:10.113Z,97785.02
2019-02-09T14:50:42.270Z,97778.69
2019-02-09T14:53:14.436Z,97786.28
2019-02-09T14:55:46.526Z,97781.38
2019-02-09T14:58:18.568Z,97774.86
2019-02-09T15:00:51.987Z,97780.02
2019-02-09T15:03:26.914Z,97783.23
2019-02-09T15:05:57.961Z,97782.11
2019-02-09T15:08:30.015Z,97784.38
2019-02-09T15:11:02.080Z,97781.69
2019-02-09T15:13:34.099Z,97780.88
2019-02-09T15:16:21.615Z,97777.53
2019-02-09T15:18:53.602Z,97783.61
2019-02-09T15:21:25.637Z,97775.30
2019-02-09T15:23:57.642Z,97771.66
2019-02-09T15:26:29.691Z,97778.23
2019-02-09T15:29:01.798Z,97779.07
2019-02-09T15:31:33.885Z,97760.63
2019-02-09T15:34:10.325Z,97769.05
2019-02-09T15:36:40.935Z,97771.81
2019-02-09T15:39:13.039Z,97773.20
2019-02-09T15:41:45.108Z,97781.59
2019-02-09T15:44:17.141Z,97788.39
2019-02-09T15:46:49.193Z,97787.63
2019-02-09T15:49:21.226Z,97792.08
2019-02-09T15:51:53.351Z,97794.52
2019-02-09T15:54:25.500Z,97787.74
2019-02-09T15:56:57.701Z,97785.66
2019-02-09T15:59:29.771Z,97796.67
2019-02-09T16:02:01.752Z,97787.67
2019-02-09T16:04:33.836Z,97794.95
2019-02-09T16:07:05.920Z,97798.71
2019-02-09T16:09:38.080Z,97793.49
2019-02-09T16:12:10.147Z,97804.59
2019-02-09T16:14:42.255Z,97799.97
2019-02-09T16:17:15.452Z,97794.77
2019-02-09T16:19:47.616Z,97805.92
2019-02-09T16:22:19.692Z,97794.69
2019-02-09T16:24:52.891Z,97811.84
2019-02-09T16:27:24.985Z,97804.45
2019-02-09T16:29:56.969Z,97814.10
2019-02-09T16:32:29.030Z,97818.35
2019-02-09T16:35:01.112Z,97824.14
2019-02-09T16:37:33.277Z,97828.36
2019-02-09T16:40:07.217Z,97821.30
2019-02-09T16:42:39.272Z,97827.47
2019-02-09T16:45:15.101Z,97834.73
2019-02-09T16:47:47.349Z,97828.44
2019-02-09T16:50:20.137Z,97825.30
2019-02-09T16:52:52.258Z,97826.38
2019-02-09T16:55:24.347Z,97819.33
2019-02-09T16:57:56.446Z,97820.02
2019-02-09T17:00:31.423Z,97821.59
2019-02-09T17:03:06.038Z,97827.88
2019-02-09T17:05:38.741Z,97823.78
2019-02-09T17:08:10.817Z,97825.43
2019-02-09T17:10:44.673Z,97824.45
2019-02-09T17:13:19.448Z,97822.80
2019-02-09T17:15:51.505Z,97827.78
2019-02-09T17:18:23.585Z,97822.51
2019-02-09T17:20:55.685Z,97827.88
2019-02-09T17:23:28.026Z,97829.36
2019-02-09T17:26:00.078Z,97831.80
2019-02-09T17:28:32.209Z,97840.44
2019-02-09T17:31:04.229Z,97847.36
2019-02-09T17:33:36.335Z,97847.48
2019-02-09T17:36:08.378Z,97846.57
2019-02-09T17:38:42.243Z,97844.24
2019-02-09T17:41:14.393Z,97845.91
2019-02-09T17:43:46.418Z,97852.86
2019-02-09T17:46:18.658Z,97851.90
2019-02-09T17:48:50.705Z,97857.88
2019-02-09T17:51:22.999Z,97858.36
2019-02-09T17:53:55.067Z,97869.22
2019-02-09T17:56:27.322Z,97855.14
2019-02-09T17:58:59.464Z,97854.25
2019-02-09T18:01:31.674Z,97864.03
2019-02-09T18:04:03.957Z,97865.12
2019-02-09T18:06:35.962Z,97859.03
2019-02-09T18:09:07.996Z,97858.75
2019-02-09T18:11:40.085Z,97858.66
2019-02-09T18:14:12.181Z,97864.73
2019-02-09T18:16:44.288Z,97863.34
2019-02-09T18:19:16.367Z,97873.25
2019-02-09T18:21:48.383Z,97857.78
2019-02-09T18:24:20.442Z,97864.42
2019-02-09T18:26:52.486Z,97866.69
2019-02-09T18:29:24.538Z,97857.67
2019-02-09T18:31:56.569Z,97850.34
2019-02-09T18:34:29.665Z,97850.61
2019-02-09T18:37:01.738Z,97852.89
2019-02-09T18:39:33.773Z,97843.67
2019-02-09T18:42:05.850Z,97848.45
2019-02-09T18:44:38.052Z,97862.59
2019-02-09T18:47:10.082Z,97855.11
2019-02-09T18:49:42.148Z,97854.23
2019-02-09T18:52:14.183Z,97850.30
2019-02-09T18:54:46.237Z,97851.19
2019-02-09T18:57:18.281Z,97853.45
2019-02-09T18:59:50.502Z,97853.10
2019-02-09T19:02:24.065Z,97850.36
2019-02-09T19:05:03.220Z,97849.03
2019-02-09T19:07:34.032Z,97850.08
2019-02-09T19:10:09.135Z,97851.63
2019-02-09T19:12:41.236Z,97848.61
2019-02-09T19:15:14.662Z,97846.14
2019-02-09T19:17:47.023Z,97844.55
2019-02-09T19:20:42.666Z,97850.44
2019-02-09T19:23:14.728Z,97841.33
2019-02-09T19:25:48.058Z,97846.82
2019-02-09T19:28:20.182Z,97848.48
2019-02-09T19:30:52.374Z,97850.64
2019-02-09T19:33:24.469Z,97846.42
2019-02-09T19:35:56.628Z,97840.06
2019-02-09T19:38:30.037Z,97843.87
2019-02-09T19:41:02.085Z,97845.03
2019-02-09T19:43:34.137Z,97840.41
2019-02-09T19:46:06.436Z,97846.50
2019-02-09T19:48:39.598Z,97845.38
2019-02-09T19:51:12.724Z,97845.18
2019-02-09T19:53:44.866Z,97842.62
2019-02-09T19:56:16.933Z,97849.13
2019-02-09T19:58:48.988Z,97840.96
2019-02-09T20:01:21.000Z,97840.55
2019-02-09T20:03:53.133Z,97837.87
2019-02-09T20:06:25.201Z,97841.68
2019-02-09T20:08:58.931Z,97838.72
2019-02-09T20:11:31.093Z,97836.25
2019-02-09T20:14:03.918Z,97837.30
2019-02-09T20:16:36.009Z,97832.80
2019-02-09T20:19:08.076Z,97830.14
2019-02-09T20:21:40.279Z,97826.99
2019-02-09T20:24:12.466Z,97832.08
2019-02-09T20:26:44.469Z,97831.78
2019-02-09T20:29:16.742Z,97839.95
2019-02-09T20:31:48.836Z,97844.61
2019-02-09T20:34:21.049Z,97848.05
2019-02-09T20:36:53.115Z,97845.96
2019-02-09T20:39:25.177Z,97850.34
2019-02-09T20:41:57.233Z,97853.45
2019-02-09T20:44:29.556Z,97846.20
2019-02-09T20:47:01.618Z,97848.43
2019-02-09T20:49:35.533Z,97854.88
2019-02-09T20:52:07.758Z,97862.34
2019-02-09T20:54:40.268Z,97858.61
2019-02-09T20:57:12.291Z,97851.43
2019-02-09T20:59:44.534Z,97849.98
2019-02-09T21:02:16.570Z,97853.18
2019-02-09T21:04:50.659Z,97848.19
2019-02-09T21:07:24.566Z,97856.89
2019-02-09T21:09:56.572Z,97862.30
2019-02-09T21:12:28.577Z,97856.00
2019-02-09T21:15:00.678Z,97864.30
2019-02-09T21:17:32.741Z,97856.08
2019-02-09T21:20:05.178Z,97860.20
2019-02-09T21:22:37.401Z,97850.88
2019-02-09T21:25:12.532Z,97847.85
2019-02-09T21:27:44.516Z,97851.04
2019-02-09T21:30:17.841Z,97850.00
2019-02-09T21:32:49.933Z,97847.46
2019-02-09T21:35:22.061Z,97843.50
2019-02-09T21:37:54.126Z,97849.31
2019-02-09T21:40:26.980Z,97850.19
2019-02-09T21:42:59.001Z,97850.29
2019-02-09T21:45:31.057Z,97843.75
2019-02-09T21:48:03.363Z,97842.81
2019-02-09T21:50:35.963Z,97847.98
2019-02-09T21:53:07.946Z,97849.96
2019-02-09T21:55:40.932Z,97850.78
2019-02-09T21:58:13.046Z,97842.06
2019-02-09T22:00:45.096Z,97835.45
2019-02-09T22:03:17.623Z,97837.72
2019-02-09T22:05:51.945Z,97838.64
2019-02-09T22:08:23.617Z,97839.31
2019-02-09T22:10:55.674Z,97826.90
2019-02-09T22:13:27.675Z,97826.55
2019-02-09T22:15:59.738Z,97824.75
2019-02-09T22:18:31.872Z,97822.51
2019-02-09T22:21:03.996Z,97823.86
2019-02-09T22:23:36.016Z,97824.50
2019-02-09T22:26:13.259Z,97827.98
2019-02-09T22:28:41.976Z,97820.52
2019-02-09T22:31:21.513Z,97822.98
2019-02-09T22:33:48.695Z,97821.06
2019-02-09T22:36:20.881Z,97819.67
2019-02-09T22:38:52.921Z,97819.41
2019-02-09T22:41:24.948Z,97825.53
2019-02-09T22:43:56.957Z,97818.49
2019-02-09T22:46:30.083Z,97812.17
2019-02-09T22:49:02.086Z,97811.15
2019-02-09T22:51:34.336Z,97812.91
2019-02-09T22:54:07.126Z,97805.31
2019-02-09T22:56:39.133Z,97803.80
2019-02-09T22:59:11.161Z,97805.25
2019-02-09T23:01:46.013Z,97806.58
2019-02-09T23:04:52.113Z,97804.73
2019-02-09T23:07:31.943Z,97800.78
2019-02-09T23:10:10.031Z,97797.77
2019-02-09T23:12:48.370Z,97789.97
2019-02-09T23:15:15.931Z,97788.85
2019-02-09T23:17:47.939Z,97782.80
2019-02-09T23:20:19.973Z,97780.39
2019-02-09T23:22:51.985Z,97775.61
2019-02-09T23:25:23.969Z,97783.48
2019-02-09T23:27:55.946Z,97774.87
2019-02-09T23:30:27.947Z,97780.72
2019-02-09T23:32:59.922Z,97781.36
2019-02-09T23:35:31.957Z,97780.83
2019-02-09T23:38:03.946Z,97769.09
2019-02-09T23:40:35.955Z,97772.73
2019-02-09T23:43:08.065Z,97766.40
2019-02-09T23:45:40.118Z,97758.05
2019-02-09T23:48:12.140Z,97766.02
2019-02-09T23:50:44.181Z,97765.89
2019-02-09T23:53:16.146Z,97762.62
2019-02-09T23:55:48.193Z,97759.95
2019-02-09T23:58:20.184Z,97763.98
